METAR Data
IDs: Format: Raw Decoded Include TAF

Data at: 1718 UTC 03 Jul 2020

METAR for:KILN (Wilmington Arpt, OH, US)
Text:KILN 031654Z AUTO VRB06KT 10SM FEW065 32/16 A3004 RMK AO2 SLP159 T03170161
Temperature: 31.7°C ( 89°F)
Dewpoint: 16.1°C ( 61°F) [RH = 39%]
Pressure (altimeter):30.04 inches Hg (1017.4 mb) [Sea level pressure: 1015.9 mb]
Winds:variable direction winds at 7 MPH (6 knots; 3.1 m/s)
Visibility:10 or more sm (16+ km)
Ceiling:at least 12,000 feet AGL
Clouds: few clouds at 6500 feet AGL
QC Flag:automated observation with no human augmentation